Time;durP1;ratioP1;P1;durP2;ratioP2;P2;SDS_P1;SDS_P2;PMS_P1;PMS_P2;Temp;Humidity;BMP_temperature;BMP_pressure;BME280_temperature;BME280_humidity;BME280_pressure;Samples;Min_cycle;Max_cycle;Signal;HPM_P1;HPM_P2
2022/04/13 00:00:32;;;;;;;22.80;17.33;;;21.80;99.90;;;;;;5031793;23;20080;-64
2022/04/13 00:02:58;;;;;;;21.73;16.50;;;21.80;99.90;;;;;;5011956;28;20038;-64
2022/04/13 00:05:24;;;;;;;22.52;14.80;;;21.80;99.90;;;;;;5012036;28;20565;-61
2022/04/13 00:07:50;;;;;;;20.75;14.57;;;21.80;99.90;;;;;;5011807;28;20057;-68
2022/04/13 00:10:16;;;;;;;17.92;13.90;;;21.80;99.90;;;;;;5012022;28;20064;-68
2022/04/13 00:12:42;;;;;;;22.73;15.68;;;21.80;99.90;;;;;;5011922;28;20029;-69
2022/04/13 00:15:09;;;;;;;19.02;14.32;;;21.80;99.90;;;;;;5011912;28;20026;-72
2022/04/13 00:17:36;;;;;;;21.30;14.33;;;21.80;99.90;;;;;;5026932;28;20114;-69
2022/04/13 00:20:07;;;;;;;16.40;12.77;;;21.80;99.90;;;;;;5011700;28;20032;-68
2022/04/13 00:22:33;;;;;;;18.00;13.32;;;21.80;99.90;;;;;;5011541;28;20029;-67
2022/04/13 00:24:59;;;;;;;20.70;13.95;;;21.80;99.90;;;;;;5011607;28;20033;-66
2022/04/13 00:27:25;;;;;;;17.20;12.93;;;21.80;99.90;;;;;;5011391;28;20121;-68
2022/04/13 00:29:50;;;;;;;16.83;12.50;;;21.80;99.90;;;;;;5011506;28;20080;-68
2022/04/13 00:32:16;;;;;;;17.05;12.43;;;21.80;99.90;;;;;;5011765;28;20102;-67
2022/04/13 00:34:42;;;;;;;16.02;11.80;;;21.80;99.90;;;;;;5011830;28;20052;-67
2022/04/13 00:37:08;;;;;;;16.42;12.60;;;21.80;99.90;;;;;;5011605;28;20025;-69
2022/04/13 00:39:34;;;;;;;15.63;11.82;;;21.80;99.90;;;;;;5011538;28;20022;-65
2022/04/13 00:42:03;;;;;;;16.27;11.75;;;21.80;99.90;;;;;;5014979;28;20303;-67
2022/04/13 00:44:30;;;;;;;16.08;11.63;;;21.80;99.90;;;;;;5015668;28;20018;-66
2022/04/13 00:46:57;;;;;;;15.73;11.48;;;21.70;99.90;;;;;;5015430;28;20046;-70
2022/04/13 00:49:25;;;;;;;15.93;11.30;;;21.70;99.90;;;;;;5015600;28;20548;-69
2022/04/13 00:51:51;;;;;;;15.02;10.32;;;21.70;99.90;;;;;;5015690;28;20310;-66
2022/04/13 00:54:22;;;;;;;14.90;10.25;;;21.70;99.90;;;;;;5015390;28;20041;-65
2022/04/13 00:56:49;;;;;;;15.35;10.50;;;21.70;99.90;;;;;;5015527;28;20385;-69
2022/04/13 00:59:16;;;;;;;14.43;10.02;;;21.70;99.90;;;;;;5028363;23;20069;-55
2022/04/13 01:01:46;;;;;;;14.85;10.52;;;21.70;99.90;;;;;;5034431;28;20462;-55
2022/04/13 01:04:13;;;;;;;14.00;10.30;;;21.70;99.90;;;;;;5035045;28;20033;-53
2022/04/13 01:06:41;;;;;;;13.60;10.13;;;21.70;99.90;;;;;;5034787;28;20084;-53
2022/04/13 01:09:07;;;;;;;13.35;9.68;;;21.70;99.90;;;;;;5034870;28;20738;-54
2022/04/13 01:11:33;;;;;;;13.05;9.80;;;21.70;99.90;;;;;;5034839;28;20030;-54
2022/04/13 01:13:59;;;;;;;15.05;9.95;;;21.70;99.90;;;;;;5034784;28;20030;-54
2022/04/13 01:16:26;;;;;;;14.02;9.88;;;21.70;99.90;;;;;;5034929;28;20010;-54
2022/04/13 01:18:52;;;;;;;15.80;10.70;;;21.70;99.90;;;;;;5034820;28;20048;-54
2022/04/13 01:21:19;;;;;;;13.65;9.90;;;21.60;99.90;;;;;;5034743;28;20021;-54
2022/04/13 01:23:46;;;;;;;12.13;8.82;;;21.70;99.90;;;;;;5034681;28;20022;-54
2022/04/13 01:26:12;;;;;;;13.97;10.10;;;21.70;99.90;;;;;;5033193;28;20037;-54
2022/04/13 01:28:38;;;;;;;13.48;9.60;;;21.60;99.90;;;;;;5034604;28;20294;-54
2022/04/13 01:31:05;;;;;;;13.68;10.05;;;21.60;99.90;;;;;;5034567;28;20061;-54
2022/04/13 01:33:31;;;;;;;14.88;9.95;;;21.60;99.90;;;;;;5034591;28;20064;-54
2022/04/13 01:36:00;;;;;;;11.52;8.93;;;21.60;99.90;;;;;;5034289;28;20541;-54
2022/04/13 01:38:30;;;;;;;14.60;10.48;;;21.60;99.90;;;;;;5034436;28;20018;-54
2022/04/13 01:40:57;;;;;;;13.50;9.98;;;21.60;99.90;;;;;;5034381;28;20029;-54
2022/04/13 01:43:23;;;;;;;13.88;9.77;;;21.60;99.90;;;;;;5034218;28;20408;-54
2022/04/13 01:45:50;;;;;;;12.25;8.65;;;21.60;99.90;;;;;;5034138;28;20037;-53
2022/04/13 01:48:17;;;;;;;12.90;9.43;;;21.60;99.90;;;;;;5034032;28;20037;-54
2022/04/13 01:50:43;;;;;;;14.32;10.05;;;21.60;99.90;;;;;;5034095;28;20488;-56
2022/04/13 01:53:08;;;;;;;12.27;8.75;;;21.60;99.90;;;;;;5033372;28;20029;-56
2022/04/13 01:55:34;;;;;;;11.75;9.18;;;21.60;99.90;;;;;;5032749;28;20083;-56
2022/04/13 01:58:00;;;;;;;11.35;8.63;;;21.50;99.90;;;;;;5033994;28;20025;-56
2022/04/13 02:00:26;;;;;;;11.80;9.38;;;21.60;99.90;;;;;;5041826;23;20064;-67
2022/04/13 02:02:53;;;;;;;11.48;8.65;;;21.60;99.90;;;;;;5033880;28;20045;-69
2022/04/13 02:05:19;;;;;;;13.43;8.77;;;21.50;99.90;;;;;;5033864;28;20351;-70
2022/04/13 02:07:45;;;;;;;11.73;8.52;;;21.50;99.90;;;;;;5033789;28;20244;-67
2022/04/13 02:10:11;;;;;;;13.18;9.15;;;21.50;99.90;;;;;;5032852;28;20029;-67
2022/04/13 02:12:37;;;;;;;12.60;9.00;;;21.50;99.90;;;;;;5033916;28;20017;-67
2022/04/13 02:15:04;;;;;;;11.75;8.57;;;21.50;99.90;;;;;;5033581;28;20037;-67
2022/04/13 02:17:30;;;;;;;10.32;7.93;;;21.50;99.90;;;;;;5032259;28;20018;-67
2022/04/13 02:19:56;;;;;;;14.20;9.23;;;21.50;99.90;;;;;;5033303;28;20116;-67
2022/04/13 02:22:22;;;;;;;11.38;8.48;;;21.50;99.90;;;;;;5033526;28;20092;-67
2022/04/13 02:24:48;;;;;;;11.32;8.88;;;21.50;99.90;;;;;;5033667;28;20036;-67
2022/04/13 02:27:14;;;;;;;10.98;8.02;;;21.50;99.90;;;;;;5033468;28;20034;-67
2022/04/13 02:29:42;;;;;;;10.75;7.80;;;21.50;99.90;;;;;;5033743;28;20025;-67
2022/04/13 02:32:09;;;;;;;12.70;8.60;;;21.50;99.90;;;;;;5032841;28;20041;-68
2022/04/13 02:34:35;;;;;;;12.15;8.98;;;21.50;99.90;;;;;;5033393;28;20026;-65
2022/04/13 02:37:01;;;;;;;11.80;7.90;;;21.50;99.90;;;;;;5031891;28;20104;-65
2022/04/13 02:39:27;;;;;;;13.18;8.48;;;21.40;99.90;;;;;;5033064;28;20029;-65
2022/04/13 02:41:52;;;;;;;12.10;8.02;;;21.40;99.90;;;;;;5033085;28;20026;-65
2022/04/13 02:44:18;;;;;;;11.65;8.52;;;21.40;99.90;;;;;;5033083;28;20418;-65
2022/04/13 02:46:44;;;;;;;10.80;7.82;;;21.40;99.90;;;;;;5032824;28;20560;-65
2022/04/13 02:49:11;;;;;;;10.30;7.05;;;21.40;99.90;;;;;;5033092;28;20025;-65
2022/04/13 02:51:37;;;;;;;10.95;7.10;;;21.40;99.90;;;;;;5032968;28;20597;-62
2022/04/13 02:54:03;;;;;;;9.85;7.32;;;21.40;99.90;;;;;;5032926;28;20342;-63
2022/04/13 02:56:29;;;;;;;10.65;7.95;;;21.40;99.90;;;;;;5032783;28;20101;-66
2022/04/13 02:58:55;;;;;;;10.77;7.93;;;21.40;99.90;;;;;;5032899;28;20117;-65
2022/04/13 03:01:21;;;;;;;10.38;7.57;;;21.40;99.90;;;;;;5045133;22;20084;-56
2022/04/13 03:03:47;;;;;;;8.85;7.22;;;21.40;99.90;;;;;;5032679;28;20389;-57
2022/04/13 03:06:13;;;;;;;11.13;8.05;;;21.40;99.90;;;;;;5032771;28;20033;-55
2022/04/13 03:08:39;;;;;;;10.23;7.07;;;21.40;99.90;;;;;;5032692;28;20034;-55
2022/04/13 03:11:05;;;;;;;11.27;7.13;;;21.40;99.90;;;;;;5031489;28;20033;-55
2022/04/13 03:13:31;;;;;;;10.85;7.82;;;21.40;99.90;;;;;;5032585;28;20014;-55
2022/04/13 03:15:57;;;;;;;9.98;7.55;;;21.40;99.90;;;;;;5032606;28;20026;-55
2022/04/13 03:18:23;;;;;;;10.02;7.72;;;21.40;99.90;;;;;;5032329;28;20037;-55
2022/04/13 03:20:49;;;;;;;11.85;7.63;;;21.40;99.90;;;;;;5032338;28;20032;-55
2022/04/13 03:23:15;;;;;;;9.65;7.30;;;21.30;99.90;;;;;;5032375;28;20024;-55
2022/04/13 03:25:40;;;;;;;11.20;7.20;;;21.30;99.90;;;;;;5032319;28;20029;-55
2022/04/13 03:28:06;;;;;;;9.27;7.13;;;21.40;99.90;;;;;;5031024;28;20026;-55
2022/04/13 03:30:32;;;;;;;9.23;6.68;;;21.40;99.90;;;;;;5032265;28;20119;-55
2022/04/13 03:32:58;;;;;;;9.45;7.45;;;21.30;99.90;;;;;;5032284;28;20072;-55
2022/04/13 03:35:24;;;;;;;8.82;6.43;;;21.30;99.90;;;;;;5030755;28;20073;-55
2022/04/13 03:37:50;;;;;;;9.85;7.10;;;21.40;99.90;;;;;;5032092;28;20029;-56
2022/04/13 03:40:15;;;;;;;9.63;6.80;;;21.30;99.90;;;;;;5030995;28;20043;-58
2022/04/13 03:42:42;;;;;;;9.18;6.47;;;21.30;99.90;;;;;;5032207;28;20022;-56
2022/04/13 03:45:11;;;;;;;10.90;7.68;;;21.30;99.90;;;;;;5032091;28;20078;-56
2022/04/13 03:47:38;;;;;;;9.45;6.82;;;21.30;99.90;;;;;;5031821;28;20692;-56
2022/04/13 03:50:04;;;;;;;10.02;7.05;;;21.30;99.90;;;;;;5031965;28;20105;-55
2022/04/13 03:52:39;;;;;;;8.88;6.47;;;21.30;99.90;;;;;;5031928;28;20025;-55
2022/04/13 03:55:07;;;;;;;9.25;6.57;;;21.30;99.90;;;;;;5031889;28;20037;-56
2022/04/13 03:57:34;;;;;;;9.77;6.72;;;21.30;99.90;;;;;;5031882;28;20030;-56
2022/04/13 04:00:00;;;;;;;9.02;6.88;;;21.30;99.90;;;;;;5032115;28;20121;-56
2022/04/13 04:02:26;;;;;;;8.68;6.38;;;21.30;99.90;;;;;;5032177;28;20053;-56
2022/04/13 04:04:51;;;;;;;9.18;6.60;;;21.30;99.90;;;;;;5031642;28;20053;-56
2022/04/13 04:07:18;;;;;;;10.10;6.50;;;21.30;99.90;;;;;;5031709;28;20048;-56
2022/04/13 04:09:44;;;;;;;7.43;5.68;;;21.30;99.90;;;;;;5031808;28;20393;-56
2022/04/13 04:12:10;;;;;;;8.52;6.00;;;21.30;99.90;;;;;;5031499;28;20030;-56
2022/04/13 04:14:36;;;;;;;10.00;7.07;;;21.30;99.90;;;;;;5031509;28;20033;-54
2022/04/13 04:17:02;;;;;;;7.95;6.07;;;21.30;99.90;;;;;;5030931;28;20030;-54
2022/04/13 04:19:28;;;;;;;8.43;6.10;;;21.30;99.90;;;;;;5031302;28;20029;-54
2022/04/13 04:21:55;;;;;;;6.93;5.28;;;21.30;99.90;;;;;;5031475;28;20094;-55
2022/04/13 04:24:21;;;;;;;7.47;5.78;;;21.30;99.90;;;;;;5031487;28;20466;-55
2022/04/13 04:26:47;;;;;;;9.32;6.47;;;21.20;99.90;;;;;;5031675;28;20041;-55
2022/04/13 04:29:13;;;;;;;9.38;6.38;;;21.20;99.90;;;;;;5031339;28;20021;-55
2022/04/13 04:31:51;;;;;;;10.25;6.78;;;21.20;99.90;;;;;;5031294;28;20227;-55
2022/04/13 04:34:19;;;;;;;8.55;6.43;;;21.20;99.90;;;;;;5031424;28;20036;-55
2022/04/13 04:36:44;;;;;;;7.38;5.72;;;21.20;99.90;;;;;;5031451;28;20033;-55
2022/04/13 04:39:10;;;;;;;7.13;5.60;;;21.20;99.90;;;;;;5031259;28;20373;-55
2022/04/13 04:41:36;;;;;;;8.10;5.82;;;21.20;99.90;;;;;;5031242;28;20112;-54
2022/04/13 04:44:02;;;;;;;7.38;5.38;;;21.20;99.90;;;;;;5031134;28;20026;-55
2022/04/13 04:46:28;;;;;;;8.50;6.10;;;21.20;99.90;;;;;;5031041;28;20061;-55
2022/04/13 04:48:54;;;;;;;7.45;5.35;;;21.20;99.90;;;;;;5031193;28;20130;-54
2022/04/13 04:51:20;;;;;;;7.72;6.13;;;21.20;99.90;;;;;;5031203;28;20090;-55
2022/04/13 04:53:47;;;;;;;6.93;5.47;;;21.20;99.90;;;;;;5031417;28;20033;-55
2022/04/13 04:56:14;;;;;;;8.32;6.15;;;21.20;99.90;;;;;;5030980;28;20083;-54
2022/04/13 04:58:40;;;;;;;8.82;6.43;;;21.20;99.90;;;;;;5031044;28;20041;-54
2022/04/13 05:01:06;;;;;;;9.05;6.00;;;21.20;99.90;;;;;;5030691;28;20050;-54
2022/04/13 05:03:32;;;;;;;8.15;5.78;;;21.20;99.90;;;;;;5030826;28;20033;-54
2022/04/13 05:05:58;;;;;;;8.35;5.45;;;21.20;99.90;;;;;;5030894;28;20026;-55
2022/04/13 05:08:24;;;;;;;8.63;5.57;;;21.20;99.90;;;;;;5030965;28;20108;-55
2022/04/13 05:10:52;;;;;;;7.57;5.45;;;21.20;99.90;;;;;;5029809;28;20108;-55
2022/04/13 05:13:18;;;;;;;6.28;5.03;;;21.20;99.90;;;;;;5031125;28;20028;-54
2022/04/13 05:15:45;;;;;;;7.30;5.60;;;21.20;99.90;;;;;;5031082;28;20470;-54
2022/04/13 05:18:11;;;;;;;5.65;4.72;;;21.20;99.90;;;;;;5030928;28;20029;-54
2022/04/13 05:20:37;;;;;;;7.28;5.13;;;21.10;99.90;;;;;;5030896;28;20033;-55
2022/04/13 05:23:03;;;;;;;6.10;4.50;;;21.20;99.90;;;;;;5030819;28;20022;-54
2022/04/13 05:25:29;;;;;;;6.05;4.95;;;21.20;99.90;;;;;;5030576;28;20504;-56
2022/04/13 05:27:55;;;;;;;6.03;4.32;;;21.10;99.90;;;;;;5032058;28;20131;-56
2022/04/13 05:30:21;;;;;;;7.85;5.10;;;21.20;99.90;;;;;;5034753;28;20025;-56
2022/04/13 05:32:58;;;;;;;6.93;4.85;;;21.10;99.90;;;;;;5034483;28;20497;-56
2022/04/13 05:35:27;;;;;;;6.32;4.35;;;21.10;99.90;;;;;;5034403;28;20029;-57
2022/04/13 05:37:54;;;;;;;6.20;4.60;;;21.10;99.90;;;;;;5034301;28;20073;-57
2022/04/13 05:40:21;;;;;;;7.03;4.80;;;21.10;99.90;;;;;;5034646;28;20022;-56
2022/04/13 05:42:48;;;;;;;5.68;4.43;;;21.10;99.90;;;;;;5034407;28;20029;-56
2022/04/13 05:45:15;;;;;;;8.23;5.07;;;21.10;99.90;;;;;;5034230;28;20031;-56
2022/04/13 05:47:42;;;;;;;5.93;4.63;;;21.10;99.90;;;;;;5034055;28;20033;-55
2022/04/13 05:50:09;;;;;;;7.72;4.40;;;21.10;99.90;;;;;;5034008;28;20022;-55
2022/04/13 05:52:35;;;;;;;7.38;5.22;;;21.10;99.90;;;;;;5034119;28;20040;-54
2022/04/13 05:55:01;;;;;;;5.82;4.00;;;21.10;99.90;;;;;;5034098;28;20041;-56
2022/04/13 05:57:27;;;;;;;5.05;4.07;;;21.10;99.90;;;;;;5034053;28;20017;-54
2022/04/13 05:59:54;;;;;;;5.80;4.43;;;21.10;99.90;;;;;;5033903;28;20493;-56
2022/04/13 06:02:20;;;;;;;7.82;5.13;;;21.10;99.90;;;;;;5033926;28;20021;-56
2022/04/13 06:04:46;;;;;;;5.30;4.07;;;21.10;99.90;;;;;;5033899;28;20037;-54
2022/04/13 06:07:12;;;;;;;6.13;4.35;;;21.10;99.90;;;;;;5032583;28;20034;-55
2022/04/13 06:09:38;;;;;;;6.43;3.67;;;21.10;99.90;;;;;;5033789;28;20083;-52
2022/04/13 06:12:04;;;;;;;7.53;4.47;;;21.10;99.90;;;;;;5033736;28;20024;-55
2022/04/13 06:14:30;;;;;;;7.43;4.05;;;21.10;99.90;;;;;;5033572;28;20030;-53
2022/04/13 06:16:56;;;;;;;6.35;4.45;;;21.10;99.90;;;;;;5033534;28;20025;-54
2022/04/13 06:19:22;;;;;;;6.57;4.95;;;21.10;99.90;;;;;;5033789;28;20037;-54
2022/04/13 06:21:47;;;;;;;6.40;4.97;;;21.10;99.90;;;;;;5033602;28;20030;-54
2022/04/13 06:24:13;;;;;;;6.25;5.25;;;21.10;99.90;;;;;;5033704;28;20127;-55
2022/04/13 06:26:39;;;;;;;7.15;5.03;;;21.10;99.90;;;;;;5033324;28;20509;-54
2022/04/13 06:29:05;;;;;;;6.65;5.72;;;21.10;99.90;;;;;;5033469;28;20362;-54
2022/04/13 06:31:31;;;;;;;7.20;4.95;;;21.10;99.90;;;;;;5033385;28;20370;-55
2022/04/13 06:33:57;;;;;;;8.10;5.07;;;21.10;99.90;;;;;;5033437;28;20036;-54
2022/04/13 06:36:22;;;;;;;7.97;5.65;;;21.10;99.90;;;;;;5033601;28;20060;-55
2022/04/13 06:38:48;;;;;;;7.72;5.90;;;21.20;99.90;;;;;;5032829;28;20101;-55
2022/04/13 06:41:14;;;;;;;10.23;6.70;;;21.20;99.90;;;;;;5033287;28;20071;-55
2022/04/13 06:43:40;;;;;;;8.43;6.07;;;21.20;99.90;;;;;;5033089;28;20377;-55
2022/04/13 06:46:07;;;;;;;8.73;6.25;;;21.20;99.90;;;;;;5032992;28;20124;-55
2022/04/13 06:48:33;;;;;;;7.32;5.53;;;21.20;99.90;;;;;;5033110;28;20032;-56
2022/04/13 06:51:00;;;;;;;8.77;5.88;;;21.10;99.90;;;;;;5033039;28;20020;-54
2022/04/13 06:53:27;;;;;;;8.25;5.13;;;21.20;99.90;;;;;;5033077;28;20033;-55
2022/04/13 06:55:53;;;;;;;8.88;5.80;;;21.20;99.90;;;;;;5033011;28;20611;-54
2022/04/13 06:58:19;;;;;;;8.00;5.82;;;21.20;99.90;;;;;;5032930;28;20112;-54
2022/04/13 07:00:45;;;;;;;8.18;4.90;;;21.20;99.90;;;;;;5032603;28;20076;-56
2022/04/13 07:03:11;;;;;;;8.18;5.95;;;21.20;99.90;;;;;;5032810;28;20034;-54
2022/04/13 07:05:37;;;;;;;8.02;5.40;;;21.20;99.90;;;;;;5032612;28;20029;-55
2022/04/13 07:08:04;;;;;;;6.78;5.03;;;21.20;99.90;;;;;;5032551;28;20103;-55
2022/04/13 07:10:31;;;;;;;7.28;5.45;;;21.20;99.90;;;;;;5032599;28;20052;-55
2022/04/13 07:12:58;;;;;;;7.28;5.38;;;21.20;99.90;;;;;;5032832;28;20476;-55
2022/04/13 07:15:25;;;;;;;6.80;4.88;;;21.20;99.90;;;;;;5032622;28;20052;-55
2022/04/13 07:17:50;;;;;;;8.85;5.28;;;21.20;99.90;;;;;;5032507;28;20037;-55
2022/04/13 07:20:17;;;;;;;7.05;4.85;;;21.20;99.90;;;;;;5032423;28;20033;-56
2022/04/13 07:22:48;;;;;;;5.68;4.35;;;21.20;99.90;;;;;;5032566;28;20453;-56
2022/04/13 07:25:14;;;;;;;7.75;4.88;;;21.20;99.90;;;;;;5032441;28;20048;-56
2022/04/13 07:27:40;;;;;;;6.70;4.33;;;21.30;99.90;;;;;;5032330;28;20389;-55
2022/04/13 07:30:07;;;;;;;6.15;4.47;;;21.30;99.90;;;;;;5030931;28;20259;-54
2022/04/13 07:32:33;;;;;;;5.93;4.60;;;21.30;99.90;;;;;;5032351;28;20116;-54
2022/04/13 07:34:59;;;;;;;6.90;4.85;;;21.30;99.90;;;;;;5032247;28;20537;-54
2022/04/13 07:37:25;;;;;;;6.60;4.47;;;21.30;99.90;;;;;;5032478;28;20022;-55
2022/04/13 07:39:54;;;;;;;5.95;4.55;;;21.30;99.90;;;;;;5032035;28;20084;-55
2022/04/13 07:42:21;;;;;;;6.15;4.25;;;21.30;99.90;;;;;;5032049;28;20059;-55
2022/04/13 07:44:47;;;;;;;5.30;3.92;;;21.30;99.90;;;;;;5030785;28;20029;-54
2022/04/13 07:47:14;;;;;;;6.32;4.32;;;21.30;99.90;;;;;;5031821;28;20115;-54
2022/04/13 07:49:43;;;;;;;5.70;4.07;;;21.30;99.90;;;;;;5031512;28;20029;-55
2022/04/13 07:52:10;;;;;;;5.80;4.18;;;21.30;99.90;;;;;;5031466;28;20026;-55
2022/04/13 07:54:36;;;;;;;4.97;3.75;;;21.30;99.90;;;;;;5031773;28;20041;-57
2022/04/13 07:57:02;;;;;;;5.00;3.92;;;21.30;99.90;;;;;;5031882;28;20057;-55
2022/04/13 07:59:29;;;;;;;6.95;4.35;;;21.30;99.90;;;;;;5031761;28;20037;-55
2022/04/13 08:01:55;;;;;;;5.78;4.30;;;21.40;99.90;;;;;;5031770;28;20050;-55
2022/04/13 08:04:21;;;;;;;5.43;3.58;;;21.40;99.90;;;;;;5031923;28;20040;-55
2022/04/13 08:06:46;;;;;;;5.25;4.05;;;21.30;99.90;;;;;;5031548;28;20029;-56
2022/04/13 08:09:12;;;;;;;5.20;3.95;;;21.40;99.90;;;;;;5031570;28;20391;-55
2022/04/13 08:11:38;;;;;;;5.95;4.20;;;21.40;99.90;;;;;;5031829;28;20088;-56
2022/04/13 08:14:05;;;;;;;7.95;4.18;;;21.40;99.90;;;;;;5031404;28;20044;-55
2022/04/13 08:16:32;;;;;;;6.57;4.15;;;21.40;99.90;;;;;;5031694;28;20021;-55
2022/04/13 08:18:58;;;;;;;7.07;5.15;;;21.40;99.90;;;;;;5031574;28;20028;-55
2022/04/13 08:21:24;;;;;;;6.93;4.15;;;21.40;99.90;;;;;;5031398;28;20037;-55
2022/04/13 08:23:50;;;;;;;5.38;3.92;;;21.30;99.90;;;;;;5031417;28;20017;-55
2022/04/13 08:26:17;;;;;;;4.93;3.75;;;21.30;99.90;;;;;;5031319;28;20033;-55
2022/04/13 08:28:42;;;;;;;4.40;3.70;;;21.30;99.90;;;;;;5031298;28;20048;-55
2022/04/13 08:31:09;;;;;;;5.97;4.10;;;21.30;99.90;;;;;;5031220;28;20470;-55
2022/04/13 08:33:36;;;;;;;7.60;4.70;;;21.30;99.90;;;;;;5031125;28;20032;-55
2022/04/13 08:36:02;;;;;;;5.53;4.07;;;21.30;99.90;;;;;;5031100;28;20028;-55
2022/04/13 08:38:29;;;;;;;5.53;3.40;;;21.30;99.90;;;;;;5030131;28;20033;-56
2022/04/13 08:40:59;;;;;;;5.07;3.80;;;21.40;99.90;;;;;;5031222;28;20385;-55
2022/04/13 08:43:41;;;;;;;6.22;3.70;;;21.40;99.90;;;;;;5031021;28;20112;-55
2022/04/13 08:46:13;;;;;;;6.32;3.97;;;21.40;99.90;;;;;;5030950;28;20096;-55
2022/04/13 08:48:45;;;;;;;4.80;3.80;;;21.40;99.90;;;;;;5030963;28;20037;-55
2022/04/13 08:51:16;;;;;;;5.78;3.88;;;21.40;99.90;;;;;;5031073;28;20192;-54
2022/04/13 08:53:44;;;;;;;6.18;3.80;;;21.40;99.90;;;;;;5031118;28;20029;-53
2022/04/13 08:56:12;;;;;;;;;;;21.40;99.90;;;;;;5031471;28;20026;-54
2022/04/13 08:59:01;;;;;;;6.18;3.78;;;21.50;99.90;;;;;;5030980;28;20323;-54
2022/04/13 09:01:57;;;;;;;4.68;3.25;;;21.50;99.90;;;;;;5030348;28;20080;-55
2022/04/13 09:04:27;;;;;;;5.25;3.45;;;21.50;99.90;;;;;;5028851;28;20073;-55
2022/04/13 09:07:00;;;;;;;6.28;3.72;;;21.50;99.90;;;;;;5034719;28;20041;-55
2022/04/13 09:09:51;;;;;;;5.88;4.00;;;21.50;99.90;;;;;;5035153;28;20030;-56
2022/04/13 09:12:18;;;;;;;4.63;3.53;;;21.50;99.90;;;;;;5033702;28;20489;-56
2022/04/13 09:14:45;;;;;;;;;;;21.50;99.90;;;;;;5035530;28;20024;-56
2022/04/13 09:17:11;;;;;;;6.13;3.88;;;21.50;99.90;;;;;;5034725;28;19904;-55
2022/04/13 09:19:38;;;;;;;4.82;3.75;;;21.50;99.90;;;;;;5034569;28;20032;-56
2022/04/13 09:22:05;;;;;;;4.68;3.60;;;21.50;99.90;;;;;;5034750;28;20044;-55
2022/04/13 09:24:32;;;;;;;5.60;3.60;;;21.50;99.90;;;;;;5034563;28;20022;-54
2022/04/13 09:27:02;;;;;;;7.07;3.80;;;21.50;99.90;;;;;;5034437;28;20075;-54
2022/04/13 09:29:28;;;;;;;5.35;3.78;;;21.50;99.90;;;;;;5034406;28;20380;-54
2022/04/13 09:31:54;;;;;;;4.05;3.17;;;21.50;99.90;;;;;;5034393;28;20628;-55
2022/04/13 09:34:20;;;;;;;4.95;3.47;;;21.50;99.90;;;;;;5034364;28;20037;-55
2022/04/13 09:36:46;;;;;;;5.03;3.40;;;21.60;99.90;;;;;;5034309;28;20406;-55
2022/04/13 09:39:13;;;;;;;4.63;3.42;;;21.60;99.90;;;;;;5034409;28;20548;-55
2022/04/13 09:41:39;;;;;;;5.13;3.78;;;21.60;99.90;;;;;;5034240;28;20112;-55
2022/04/13 09:44:15;;;;;;;6.07;3.97;;;21.60;99.90;;;;;;5034340;28;20021;-55
2022/04/13 09:46:42;;;;;;;5.95;3.55;;;21.60;99.90;;;;;;5034039;28;20030;-55
2022/04/13 09:49:18;;;;;;;5.25;3.70;;;21.60;99.90;;;;;;5034185;28;20025;-55
2022/04/13 09:51:48;;;;;;;6.13;4.43;;;21.60;99.90;;;;;;5034014;28;20428;-55
2022/04/13 09:54:14;;;;;;;6.72;4.45;;;21.60;99.90;;;;;;5033956;28;20062;-55
2022/04/13 09:56:48;;;;;;;5.00;3.88;;;21.70;99.90;;;;;;5033925;28;20080;-55
2022/04/13 09:59:31;;;;;;;6.28;3.97;;;21.70;99.90;;;;;;5033788;28;20433;-55
2022/04/13 10:01:58;;;;;;;5.38;4.53;;;21.70;99.90;;;;;;5033545;28;20053;-55
2022/04/13 10:04:28;;;;;;;5.20;3.37;;;21.80;99.90;;;;;;5033758;28;20029;-57
2022/04/13 10:06:55;;;;;;;5.97;3.78;;;21.80;99.90;;;;;;5033571;28;20287;-56
2022/04/13 10:09:23;;;;;;;5.50;3.97;;;21.80;99.90;;;;;;5033630;28;20030;-56
2022/04/13 10:12:01;;;;;;;7.78;3.88;;;21.80;99.90;;;;;;5033620;28;20071;-56
2022/04/13 10:14:26;;;;;;;6.15;4.00;;;21.80;99.90;;;;;;5032927;28;20025;-56
2022/04/13 10:16:56;;;;;;;5.63;4.10;;;21.90;99.90;;;;;;5033562;28;20595;-56
2022/04/13 10:19:22;;;;;;;6.40;4.32;;;21.90;99.90;;;;;;5033335;28;20052;-55
2022/04/13 10:21:51;;;;;;;6.03;4.05;;;21.90;99.90;;;;;;5033491;28;20500;-55
2022/04/13 10:24:31;;;;;;;6.10;4.05;;;21.90;99.90;;;;;;5033496;28;20386;-55
2022/04/13 10:27:17;;;;;;;6.55;4.30;;;21.90;99.90;;;;;;5033371;28;20029;-57
2022/04/13 10:29:50;;;;;;;5.57;3.58;;;22.00;99.90;;;;;;5033409;28;20045;-56
2022/04/13 10:32:18;;;;;;;5.72;4.28;;;22.00;99.90;;;;;;5033212;28;20029;-55
2022/04/13 10:34:51;;;;;;;6.10;4.05;;;22.10;99.90;;;;;;5033322;28;20092;-56
2022/04/13 10:37:20;;;;;;;6.43;4.00;;;22.10;99.90;;;;;;5033313;28;20116;-56
2022/04/13 10:39:47;;;;;;;6.22;4.00;;;22.10;99.90;;;;;;5033249;28;20026;-55
2022/04/13 10:42:15;;;;;;;8.73;5.13;;;22.20;99.90;;;;;;5033162;28;20128;-56
2022/04/13 10:45:07;;;;;;;7.50;4.50;;;22.20;99.90;;;;;;5033044;28;20504;-59
2022/04/13 10:47:51;;;;;;;8.63;4.65;;;22.20;99.90;;;;;;5033016;28;20147;-57
2022/04/13 10:50:27;;;;;;;7.50;4.68;;;22.30;99.90;;;;;;5032945;28;20026;-57
2022/04/13 10:52:58;;;;;;;7.95;5.15;;;22.30;99.90;;;;;;5033072;28;20113;-57
2022/04/13 10:55:27;;;;;;;7.10;4.65;;;22.30;99.90;;;;;;5032854;28;20381;-56
2022/04/13 10:58:18;;;;;;;8.57;5.03;;;22.40;99.90;;;;;;5032891;28;20032;-57
2022/04/13 11:00:49;;;;;;;8.35;5.10;;;22.40;99.90;;;;;;5032585;28;20053;-55
2022/04/13 11:03:16;;;;;;;8.27;4.82;;;22.40;99.90;;;;;;5032875;28;20048;-56
2022/04/13 11:05:42;;;;;;;9.30;4.60;;;22.50;99.90;;;;;;5032750;28;20039;-56
2022/04/13 11:08:14;;;;;;;8.63;5.13;;;22.50;99.90;;;;;;5032579;28;20140;-57
2022/04/13 11:10:47;;;;;;;8.48;4.63;;;22.50;99.90;;;;;;5032594;28;20032;-57
2022/04/13 11:13:15;;;;;;;7.82;5.28;;;22.50;99.90;;;;;;5032558;28;20533;-58
2022/04/13 11:15:50;;;;;;;11.05;5.60;;;22.60;99.90;;;;;;5032527;28;20037;-59
2022/04/13 11:18:18;;;;;;;10.02;5.47;;;22.60;99.90;;;;;;5032383;28;20032;-56
2022/04/13 11:21:01;;;;;;;7.35;4.57;;;22.60;99.90;;;;;;5031102;28;20064;-57
2022/04/13 11:23:50;;;;;;;11.07;4.95;;;22.60;99.90;;;;;;5032303;28;20036;-58
2022/04/13 11:26:28;;;;;;;8.32;5.25;;;22.60;99.90;;;;;;5031264;28;20025;-57
2022/04/13 11:29:09;;;;;;;9.88;4.70;;;22.60;99.90;;;;;;5032209;28;20536;-56
2022/04/13 11:32:00;;;;;;;8.98;4.55;;;22.70;99.90;;;;;;5032113;28;20444;-56
2022/04/13 11:34:30;;;;;;;9.52;4.22;;;22.70;99.90;;;;;;5032136;28;20041;-53
2022/04/13 11:37:00;;;;;;;8.35;4.43;;;22.70;99.90;;;;;;5018084;28;20485;-52
2022/04/13 11:39:50;;;;;;;7.70;4.22;;;22.70;99.90;;;;;;5015457;28;20026;-53
2022/04/13 11:42:17;;;;;;;7.68;4.70;;;22.70;99.90;;;;;;5015393;28;20022;-53
2022/04/13 11:44:50;;;;;;;8.18;4.10;;;22.70;99.90;;;;;;5021828;28;20034;-53
2022/04/13 11:47:18;;;;;;;9.25;4.40;;;22.80;99.90;;;;;;5021487;28;20036;-53
2022/04/13 11:50:01;;;;;;;7.65;4.20;;;22.80;99.90;;;;;;5031229;28;20542;-54
2022/04/13 11:52:57;;;;;;;5.82;3.88;;;22.80;99.90;;;;;;5021362;28;20038;-54
2022/04/13 11:55:46;;;;;;;8.90;5.30;;;22.80;99.90;;;;;;5017880;28;20021;-54
2022/04/13 11:58:13;;;;;;;7.47;4.40;;;22.90;99.90;;;;;;5023030;28;20037;-53
2022/04/13 12:00:52;;;;;;;8.82;4.90;;;22.90;99.90;;;;;;5031331;28;20087;-56
2022/04/13 12:03:32;;;;;;;8.13;5.07;;;22.90;99.90;;;;;;5017630;28;20025;-54
2022/04/13 12:06:09;;;;;;;8.93;4.78;;;22.90;99.90;;;;;;5030753;28;20025;-53
2022/04/13 12:08:46;;;;;;;9.13;4.65;;;23.00;99.90;;;;;;5030904;28;20477;-53
2022/04/13 12:11:36;;;;;;;9.98;4.78;;;23.00;99.90;;;;;;5023206;28;20030;-54
2022/04/13 12:14:02;;;;;;;10.45;5.03;;;23.00;99.90;;;;;;5024448;28;20566;-53
2022/04/13 12:16:38;;;;;;;11.55;5.55;;;23.00;99.90;;;;;;5022237;28;20061;-53
2022/04/13 12:19:09;;;;;;;11.98;6.28;;;23.00;99.90;;;;;;5039873;28;20033;-53
2022/04/13 12:21:37;;;;;;;13.65;6.78;;;23.00;99.90;;;;;;5024585;28;20104;-54
2022/04/13 12:24:08;;;;;;;13.52;8.10;;;23.00;99.90;;;;;;5020166;28;20497;-56
2022/04/13 12:26:34;;;;;;;14.82;8.23;;;23.10;99.90;;;;;;5025555;28;20068;-54
2022/04/13 12:29:10;;;;;;;23.67;9.27;;;23.10;99.90;;;;;;5030838;28;20021;-54
2022/04/13 12:31:47;;;;;;;16.52;9.10;;;23.10;99.90;;;;;;5027547;28;20828;-54
2022/04/13 12:34:20;;;;;;;13.85;9.38;;;23.10;99.90;;;;;;5025839;28;20033;-54
2022/04/13 12:37:06;;;;;;;14.40;9.18;;;23.10;99.90;;;;;;5027242;28;20493;-54
2022/04/13 12:39:34;;;;;;;16.00;9.40;;;23.10;99.90;;;;;;5027273;28;20026;-54
2022/04/13 12:42:01;;;;;;;12.73;8.50;;;23.20;99.90;;;;;;5028593;28;20508;-54
2022/04/13 12:44:29;;;;;;;17.80;9.95;;;23.20;99.90;;;;;;5028415;28;20079;-54
2022/04/13 12:47:08;;;;;;;17.83;10.05;;;23.20;99.90;;;;;;5027259;28;20049;-55
2022/04/13 12:49:36;;;;;;;16.10;10.13;;;23.20;99.90;;;;;;5028312;28;20026;-54